createdAt,value
2018-01-13T00:00:57.550Z,51.90
2018-01-13T00:03:25.922Z,50.30
2018-01-13T00:05:54.301Z,52.43
2018-01-13T00:08:23.125Z,52.53
2018-01-13T00:10:51.479Z,51.40
2018-01-13T00:13:19.846Z,49.03
2018-01-13T00:15:48.674Z,49.83
2018-01-13T00:18:17.047Z,47.57
2018-01-13T00:20:45.415Z,51.50
2018-01-13T00:23:13.780Z,51.70
2018-01-13T00:25:42.197Z,51.97
2018-01-13T00:28:10.570Z,47.80
2018-01-13T00:30:38.931Z,48.23
2018-01-13T00:33:07.326Z,47.43
2018-01-13T00:35:35.703Z,49.57
2018-01-13T00:38:04.060Z,49.43
2018-01-13T00:40:32.475Z,47.10
2018-01-13T00:43:00.954Z,48.30
2018-01-13T00:45:29.526Z,47.47
2018-01-13T00:47:57.908Z,47.50
2018-01-13T00:50:26.272Z,45.50
2018-01-13T00:52:54.640Z,45.80
2018-01-13T00:55:23.016Z,47.90
2018-01-13T00:57:51.424Z,45.80
2018-01-13T01:00:19.795Z,45.67
2018-01-13T01:02:48.175Z,44.80
2018-01-13T01:05:16.539Z,47.97
2018-01-13T01:07:44.949Z,46.17
2018-01-13T01:10:13.500Z,48.43
2018-01-13T01:12:41.846Z,49.80
2018-01-13T01:15:10.647Z,46.50
2018-01-13T01:17:39.387Z,45.40
2018-01-13T01:20:07.857Z,43.87
2018-01-13T01:22:36.216Z,47.50
2018-01-13T01:25:04.565Z,45.20
2018-01-13T01:27:33.386Z,46.37
2018-01-13T01:30:01.739Z,44.60
2018-01-13T01:32:30.090Z,43.13
2018-01-13T01:34:58.532Z,45.00
2018-01-13T01:37:26.919Z,43.87
2018-01-13T01:39:55.395Z,45.20
2018-01-13T01:42:23.791Z,43.10
2018-01-13T01:44:52.156Z,45.30
2018-01-13T01:47:20.552Z,44.83
2018-01-13T01:49:48.919Z,43.73
2018-01-13T01:52:17.297Z,42.40
2018-01-13T01:54:45.644Z,46.50
2018-01-13T01:57:14.054Z,43.37
2018-01-13T01:59:42.411Z,46.80
2018-01-13T02:02:10.814Z,43.03
2018-01-13T02:04:39.713Z,47.10
2018-01-13T02:07:08.175Z,43.33
2018-01-13T02:09:36.529Z,43.87
2018-01-13T02:12:04.931Z,44.33
2018-01-13T02:14:33.280Z,45.10
2018-01-13T02:17:01.646Z,47.23
2018-01-13T02:19:30.423Z,46.40
2018-01-13T02:21:59.185Z,43.00
2018-01-13T02:24:27.551Z,42.17
2018-01-13T02:26:55.912Z,47.13
2018-01-13T02:29:24.262Z,45.00
2018-01-13T02:31:52.630Z,47.30
2018-01-13T02:34:21.490Z,46.63
2018-01-13T02:36:49.898Z,46.20
2018-01-13T02:39:18.647Z,45.97
2018-01-13T02:41:47.012Z,44.03
2018-01-13T02:44:15.407Z,44.20
2018-01-13T02:46:43.771Z,46.03
2018-01-13T02:49:12.115Z,47.67
2018-01-13T02:51:40.497Z,47.97
2018-01-13T02:54:08.849Z,47.10
2018-01-13T02:56:37.292Z,46.73
2018-01-13T02:59:05.645Z,49.00
2018-01-13T03:01:34.016Z,48.27
2018-01-13T03:04:02.380Z,50.33
2018-01-13T03:06:31.151Z,49.27
2018-01-13T03:08:59.543Z,46.90
2018-01-13T03:11:28.395Z,51.20
2018-01-13T03:13:56.790Z,48.57
2018-01-13T03:16:25.155Z,50.30
2018-01-13T03:18:53.569Z,51.13
2018-01-13T03:21:22.415Z,45.47
2018-01-13T03:23:50.784Z,47.90
2018-01-13T03:26:19.731Z,49.20
2018-01-13T03:28:48.566Z,52.57
2018-01-13T03:31:16.981Z,51.90
2018-01-13T03:33:45.751Z,49.83
2018-01-13T03:36:14.127Z,49.93
2018-01-13T03:38:42.542Z,49.27
2018-01-13T03:41:11.119Z,51.00
2018-01-13T03:43:40.050Z,51.73
2018-01-13T03:46:08.415Z,51.73
2018-01-13T03:48:36.767Z,51.90
2018-01-13T03:51:05.133Z,51.00
2018-01-13T03:53:33.479Z,44.60
2018-01-13T03:56:01.974Z,48.07
2018-01-13T03:58:30.369Z,49.83
2018-01-13T04:00:58.853Z,48.33
2018-01-13T04:03:27.229Z,50.13
2018-01-13T04:05:55.630Z,48.20
2018-01-13T04:08:24.397Z,51.57
2018-01-13T04:10:52.776Z,49.00
2018-01-13T04:13:21.143Z,50.53
2018-01-13T04:15:49.526Z,50.37
2018-01-13T04:18:17.905Z,50.63
2018-01-13T04:20:46.279Z,49.93
2018-01-13T04:23:14.631Z,49.60
2018-01-13T04:25:42.998Z,48.87
2018-01-13T04:28:11.379Z,49.50
2018-01-13T04:30:39.746Z,48.80
2018-01-13T04:33:08.102Z,49.73
2018-01-13T04:35:37.052Z,51.40
2018-01-13T04:38:05.431Z,48.10
2018-01-13T04:40:33.787Z,49.43
2018-01-13T04:43:02.131Z,47.30
2018-01-13T04:45:30.952Z,51.73
2018-01-13T04:47:59.311Z,47.60
2018-01-13T04:50:27.683Z,48.63
2018-01-13T04:52:56.058Z,45.83
2018-01-13T04:55:24.434Z,48.83
2018-01-13T04:57:52.802Z,49.40
2018-01-13T05:00:21.196Z,48.83
2018-01-13T05:02:50.047Z,48.83
2018-01-13T05:05:18.436Z,45.07
2018-01-13T05:07:46.803Z,48.57
2018-01-13T05:10:15.191Z,47.63
2018-01-13T05:12:43.555Z,48.40
2018-01-13T05:15:11.939Z,45.87
2018-01-13T05:17:40.324Z,47.77
2018-01-13T05:20:08.683Z,47.50
2018-01-13T05:22:37.169Z,50.53
2018-01-13T05:25:05.531Z,46.33
2018-01-13T05:27:33.884Z,48.90
2018-01-13T05:30:02.650Z,37.10
2018-01-13T05:32:31.007Z,44.60
2018-01-13T05:34:59.373Z,46.37
2018-01-13T05:37:27.743Z,44.17
2018-01-13T05:39:57.156Z,45.47
2018-01-13T05:42:25.506Z,44.43
2018-01-13T05:44:53.903Z,43.83
2018-01-13T05:47:22.264Z,47.00
2018-01-13T05:49:50.618Z,42.70
2018-01-13T05:52:19.405Z,41.47
2018-01-13T05:54:48.176Z,44.10
2018-01-13T05:57:16.731Z,43.03
2018-01-13T05:59:45.175Z,42.53
2018-01-13T06:02:13.536Z,43.53
2018-01-13T06:04:42.375Z,43.03
2018-01-13T06:07:10.861Z,42.10
2018-01-13T06:09:39.258Z,42.03
2018-01-13T06:12:07.637Z,42.07
2018-01-13T06:14:36.016Z,39.73
2018-01-13T06:17:04.487Z,41.57
2018-01-13T06:19:32.833Z,38.47
2018-01-13T06:22:01.207Z,38.30
2018-01-13T06:24:29.572Z,39.90
2018-01-13T06:26:57.992Z,38.80
2018-01-13T06:29:26.468Z,39.00
2018-01-13T06:31:54.819Z,37.20
2018-01-13T06:34:23.170Z,36.83
2018-01-13T06:36:52.067Z,37.10
2018-01-13T06:39:20.405Z,38.60
2018-01-13T06:41:48.755Z,35.90
2018-01-13T06:44:17.144Z,36.03
2018-01-13T06:46:45.495Z,34.57
2018-01-13T06:49:13.867Z,31.97
2018-01-13T06:51:42.366Z,33.93
2018-01-13T06:54:10.727Z,35.30
2018-01-13T06:56:39.071Z,35.47
2018-01-13T06:59:07.445Z,34.60
2018-01-13T07:01:35.807Z,33.67
2018-01-13T07:04:04.242Z,35.17
2018-01-13T07:06:32.615Z,34.57
2018-01-13T07:09:02.300Z,34.07
2018-01-13T07:11:30.772Z,31.90
2018-01-13T07:13:59.212Z,33.00
2018-01-13T07:16:27.571Z,36.33
2018-01-13T07:18:57.239Z,33.23
2018-01-13T07:21:26.016Z,32.20
2018-01-13T07:23:54.406Z,33.43
2018-01-13T07:26:22.767Z,30.47
2018-01-13T07:28:51.463Z,32.20
2018-01-13T07:31:19.807Z,32.03
2018-01-13T07:33:48.172Z,29.67
2018-01-13T07:36:16.615Z,30.80
2018-01-13T07:38:45.076Z,29.40
2018-01-13T07:41:13.469Z,32.03
2018-01-13T07:43:41.935Z,31.13
2018-01-13T07:46:10.311Z,31.80
2018-01-13T07:48:38.683Z,27.33
2018-01-13T07:51:07.074Z,29.30
2018-01-13T07:53:35.434Z,29.13
2018-01-13T07:56:04.027Z,25.93
2018-01-13T07:58:32.415Z,27.23
2018-01-13T08:01:00.802Z,26.40
2018-01-13T08:03:35.220Z,27.00
2018-01-13T08:06:03.605Z,27.07
2018-01-13T08:08:31.977Z,23.80
2018-01-13T08:11:00.394Z,24.40
2018-01-13T08:13:29.151Z,23.53
2018-01-13T08:15:57.619Z,26.17
2018-01-13T08:18:25.988Z,24.30
2018-01-13T08:20:54.355Z,25.27
2018-01-13T08:23:22.755Z,25.47
2018-01-13T08:25:51.128Z,22.73
2018-01-13T08:28:19.472Z,23.57
2018-01-13T08:30:47.832Z,23.47
2018-01-13T08:33:16.685Z,23.20
2018-01-13T08:35:45.043Z,21.10
2018-01-13T08:38:13.409Z,22.33
2018-01-13T08:40:41.803Z,22.03
2018-01-13T08:43:10.205Z,21.60
2018-01-13T08:45:38.577Z,23.93
2018-01-13T08:48:06.957Z,22.27
2018-01-13T08:50:35.337Z,25.03
2018-01-13T08:53:03.987Z,22.47
2018-01-13T08:55:32.476Z,23.80
2018-01-13T08:58:00.847Z,24.07
2018-01-13T09:00:29.287Z,21.23
2018-01-13T09:02:57.678Z,22.60
2018-01-13T09:05:26.031Z,21.50
2018-01-13T09:07:54.392Z,19.97
2018-01-13T09:10:22.770Z,22.60
2018-01-13T09:12:51.124Z,20.33
2018-01-13T09:15:19.495Z,21.40
2018-01-13T09:17:47.896Z,21.37
2018-01-13T09:20:16.244Z,22.70
2018-01-13T09:22:44.591Z,21.00
2018-01-13T09:25:13.364Z,18.10
2018-01-13T09:27:41.722Z,21.27
2018-01-13T09:30:10.120Z,19.90
2018-01-13T09:32:38.509Z,19.77
2018-01-13T09:35:06.972Z,20.50
2018-01-13T09:37:35.332Z,19.03
2018-01-13T09:40:03.722Z,16.80
2018-01-13T09:42:32.622Z,19.17
2018-01-13T09:45:01.006Z,17.70
2018-01-13T09:47:29.401Z,16.73
2018-01-13T09:49:57.783Z,20.03
2018-01-13T09:52:26.187Z,19.40
2018-01-13T09:54:54.562Z,18.13
2018-01-13T09:57:22.917Z,18.27
2018-01-13T09:59:51.404Z,17.40
2018-01-13T10:02:20.185Z,17.93
2018-01-13T10:04:48.651Z,18.17
2018-01-13T10:07:17.020Z,17.27
2018-01-13T10:09:45.398Z,16.83
2018-01-13T10:12:13.777Z,17.43
2018-01-13T10:14:42.140Z,17.70
2018-01-13T10:17:10.517Z,16.73
2018-01-13T10:19:38.886Z,16.40
2018-01-13T10:22:07.294Z,17.63
2018-01-13T10:24:35.721Z,16.53
2018-01-13T10:27:04.481Z,17.60
2018-01-13T10:29:32.830Z,15.90
2018-01-13T10:32:01.202Z,16.97
2018-01-13T10:34:29.691Z,16.90
2018-01-13T10:36:58.074Z,17.17
2018-01-13T10:39:28.458Z,16.80
2018-01-13T10:41:56.880Z,18.43
2018-01-13T10:44:25.243Z,19.60
2018-01-13T10:46:53.627Z,18.13
2018-01-13T10:49:22.944Z,21.30
2018-01-13T10:51:51.294Z,19.27
2018-01-13T10:54:19.702Z,20.60
2018-01-13T10:56:48.070Z,19.00
2018-01-13T10:59:16.428Z,18.73
2018-01-13T11:01:44.834Z,18.17
2018-01-13T11:04:13.204Z,17.77
2018-01-13T11:06:41.743Z,19.63
2018-01-13T11:09:10.087Z,17.27
2018-01-13T11:11:38.443Z,19.07
2018-01-13T11:14:06.796Z,20.33
2018-01-13T11:16:35.184Z,20.07
2018-01-13T11:19:03.689Z,18.50
2018-01-13T11:21:32.066Z,19.40
2018-01-13T11:24:00.449Z,19.40
2018-01-13T11:26:28.820Z,19.33
2018-01-13T11:28:57.200Z,20.67
2018-01-13T11:31:25.600Z,18.80
2018-01-13T11:33:54.060Z,19.73
2018-01-13T11:36:22.451Z,18.23
2018-01-13T11:38:50.860Z,18.47
2018-01-13T11:41:19.612Z,18.13
2018-01-13T11:43:47.980Z,18.87
2018-01-13T11:46:16.480Z,19.27
2018-01-13T11:48:44.848Z,16.00
2018-01-13T11:51:13.218Z,16.87
2018-01-13T11:53:41.600Z,17.33
2018-01-13T11:56:10.057Z,17.77
2018-01-13T11:58:38.411Z,17.47
2018-01-13T12:01:07.189Z,16.80
2018-01-13T12:03:35.949Z,16.50
2018-01-13T12:06:04.312Z,18.03
2018-01-13T12:08:32.696Z,18.40
2018-01-13T12:11:01.061Z,17.53
2018-01-13T12:13:29.427Z,18.07
2018-01-13T12:15:57.812Z,17.03
2018-01-13T12:18:26.173Z,15.63
2018-01-13T12:20:54.605Z,16.67
2018-01-13T12:23:23.064Z,16.07
2018-01-13T12:25:51.445Z,15.00
2018-01-13T12:28:19.804Z,15.30
2018-01-13T12:30:48.240Z,16.53
2018-01-13T12:33:16.979Z,15.30
2018-01-13T12:35:45.380Z,16.30
2018-01-13T12:38:13.846Z,15.13
2018-01-13T12:40:42.240Z,14.93
2018-01-13T12:43:10.658Z,15.53
2018-01-13T12:45:39.475Z,15.00
2018-01-13T12:48:07.872Z,17.37
2018-01-13T12:50:36.232Z,16.03
2018-01-13T12:53:04.744Z,16.30
2018-01-13T12:55:33.119Z,17.23
2018-01-13T12:58:01.507Z,14.70
2018-01-13T13:00:30.083Z,16.17
2018-01-13T13:02:58.506Z,16.43
2018-01-13T13:05:27.300Z,16.87
2018-01-13T13:07:55.732Z,14.83
2018-01-13T13:10:24.173Z,15.80
2018-01-13T13:12:52.529Z,15.50
2018-01-13T13:15:20.925Z,16.23
2018-01-13T13:17:49.285Z,15.60
2018-01-13T13:20:18.036Z,13.70
2018-01-13T13:22:46.628Z,14.87
2018-01-13T13:25:15.113Z,14.70
2018-01-13T13:27:43.571Z,15.43
2018-01-13T13:30:11.952Z,14.90
2018-01-13T13:32:40.322Z,14.80
2018-01-13T13:35:08.689Z,13.37
2018-01-13T13:37:37.071Z,13.10
2018-01-13T13:40:05.420Z,14.40
2018-01-13T13:42:34.171Z,12.93
2018-01-13T13:45:02.575Z,12.80
2018-01-13T13:47:30.932Z,12.07
2018-01-13T13:49:59.299Z,12.10
2018-01-13T13:52:27.675Z,13.60
2018-01-13T13:54:56.034Z,11.90
2018-01-13T13:57:24.404Z,11.73
2018-01-13T13:59:52.815Z,10.87
2018-01-13T14:02:21.254Z,10.67
2018-01-13T14:04:49.602Z,11.60
2018-01-13T14:07:18.477Z,10.53
2018-01-13T14:09:46.930Z,9.30
2018-01-13T14:12:15.293Z,9.67
2018-01-13T14:14:43.804Z,9.40
2018-01-13T14:17:12.188Z,9.43
2018-01-13T14:19:40.560Z,10.40
2018-01-13T14:22:09.050Z,10.37
2018-01-13T14:24:37.411Z,10.30
2018-01-13T14:27:05.763Z,10.63
2018-01-13T14:29:34.177Z,9.73
2018-01-13T14:32:02.568Z,9.53
2018-01-13T14:34:30.938Z,9.10
2018-01-13T14:36:59.404Z,9.03
2018-01-13T14:39:27.794Z,9.67
2018-01-13T14:41:56.135Z,8.87
2018-01-13T14:44:25.631Z,9.70
2018-01-13T14:46:53.991Z,8.87
2018-01-13T14:49:22.887Z,7.97
2018-01-13T14:51:51.334Z,8.80
2018-01-13T14:54:19.715Z,9.87
2018-01-13T14:56:48.085Z,8.60
2018-01-13T14:59:16.488Z,10.97
2018-01-13T15:01:44.948Z,10.20
2018-01-13T15:04:13.325Z,9.80
2018-01-13T15:06:41.711Z,10.40
2018-01-13T15:09:10.095Z,9.20
2018-01-13T15:11:38.532Z,10.13
2018-01-13T15:14:06.895Z,9.60
2018-01-13T15:16:35.520Z,9.60
2018-01-13T15:19:04.017Z,10.57
2018-01-13T15:21:32.392Z,9.47
2018-01-13T15:24:00.773Z,10.20
2018-01-13T15:26:29.152Z,11.30
2018-01-13T15:28:57.541Z,9.33
2018-01-13T15:31:26.053Z,9.73
2018-01-13T15:33:54.895Z,9.90
2018-01-13T15:36:23.371Z,11.00
2018-01-13T15:38:51.731Z,10.27
2018-01-13T15:41:20.092Z,9.60
2018-01-13T15:43:48.561Z,10.03
2018-01-13T15:46:17.024Z,9.50
2018-01-13T15:48:45.427Z,9.30
2018-01-13T15:51:13.799Z,9.50
2018-01-13T15:53:42.555Z,10.57
2018-01-13T15:56:11.940Z,11.80
2018-01-13T15:58:40.427Z,10.30
2018-01-13T16:01:08.796Z,12.23
2018-01-13T16:03:37.179Z,11.20
2018-01-13T16:06:05.548Z,11.80
2018-01-13T16:08:33.909Z,10.50
2018-01-13T16:11:02.320Z,10.90
2018-01-13T16:13:30.810Z,10.37
2018-01-13T16:15:59.212Z,9.73
2018-01-13T16:18:27.992Z,11.70
2018-01-13T16:20:56.378Z,10.37
2018-01-13T16:23:25.175Z,10.87
2018-01-13T16:25:53.525Z,10.63
2018-01-13T16:28:21.991Z,11.20
2018-01-13T16:30:50.354Z,11.97
2018-01-13T16:33:18.744Z,12.03
2018-01-13T16:35:47.128Z,12.23
2018-01-13T16:38:15.536Z,13.20
2018-01-13T16:40:44.097Z,13.30
2018-01-13T16:43:12.568Z,13.40
2018-01-13T16:45:40.953Z,11.93
2018-01-13T16:48:09.338Z,13.60
2018-01-13T16:50:37.804Z,14.03
2018-01-13T16:53:06.166Z,12.97
2018-01-13T16:55:34.592Z,13.77
2018-01-13T16:58:02.965Z,14.60
2018-01-13T17:00:31.499Z,12.90
2018-01-13T17:03:00.855Z,12.63
2018-01-13T17:05:29.240Z,14.67
2018-01-13T17:07:58.096Z,13.17
2018-01-13T17:10:26.472Z,15.00
2018-01-13T17:12:54.853Z,14.07
2018-01-13T17:15:23.208Z,13.63
2018-01-13T17:17:51.565Z,15.40
2018-01-13T17:20:19.926Z,14.10
2018-01-13T17:22:48.803Z,15.30
2018-01-13T17:25:17.255Z,15.50
2018-01-13T17:27:45.630Z,16.83
2018-01-13T17:30:13.982Z,15.57
2018-01-13T17:32:42.340Z,15.33
2018-01-13T17:35:11.154Z,14.13
2018-01-13T17:37:39.875Z,14.37
2018-01-13T17:40:08.246Z,14.90
2018-01-13T17:42:36.632Z,13.13
2018-01-13T17:45:04.988Z,12.90
2018-01-13T17:47:33.349Z,12.80
2018-01-13T17:50:01.735Z,12.13
2018-01-13T17:52:30.126Z,12.30
2018-01-13T17:54:58.501Z,13.03
2018-01-13T17:57:26.895Z,11.73
2018-01-13T17:59:55.256Z,12.07
2018-01-13T18:02:23.604Z,14.10
2018-01-13T18:04:52.417Z,12.27
2018-01-13T18:07:20.801Z,12.70
2018-01-13T18:09:49.157Z,11.10
2018-01-13T18:12:17.933Z,12.07
2018-01-13T18:14:46.778Z,12.77
2018-01-13T18:17:15.150Z,12.00
2018-01-13T18:19:43.515Z,11.97
2018-01-13T18:22:11.912Z,12.70
2018-01-13T18:24:40.280Z,10.37
2018-01-13T18:27:08.668Z,11.73
2018-01-13T18:29:37.049Z,11.30
2018-01-13T18:32:05.403Z,11.93
2018-01-13T18:34:33.780Z,11.37
2018-01-13T18:37:02.141Z,10.10
2018-01-13T18:39:30.896Z,12.07
2018-01-13T18:41:59.470Z,9.83
2018-01-13T18:44:27.836Z,10.23
2018-01-13T18:46:56.318Z,10.70
2018-01-13T18:49:24.707Z,11.10
2018-01-13T18:51:53.079Z,12.07
2018-01-13T18:54:21.460Z,11.10
2018-01-13T18:56:49.859Z,12.47
2018-01-13T18:59:18.213Z,12.57
2018-01-13T19:01:46.612Z,13.27
2018-01-13T19:04:14.992Z,12.43
2018-01-13T19:06:43.353Z,12.30
2018-01-13T19:09:11.751Z,12.37
2018-01-13T19:11:40.215Z,13.77
2018-01-13T19:14:08.580Z,13.17
2018-01-13T19:16:36.935Z,14.13
2018-01-13T19:19:05.312Z,11.17
2018-01-13T19:21:33.667Z,13.30
2018-01-13T19:24:02.612Z,13.57
2018-01-13T19:26:31.531Z,13.20
2018-01-13T19:28:59.988Z,14.40
2018-01-13T19:31:28.363Z,11.93
2018-01-13T19:33:56.856Z,12.53
2018-01-13T19:36:25.214Z,14.70
2018-01-13T19:38:53.717Z,14.00
2018-01-13T19:41:22.301Z,13.33
2018-01-13T19:43:50.759Z,12.80
2018-01-13T19:46:19.134Z,13.57
2018-01-13T19:48:47.832Z,13.00
2018-01-13T19:51:16.475Z,14.07
2018-01-13T19:53:44.953Z,13.43
2018-01-13T19:56:13.499Z,13.20
2018-01-13T19:58:41.873Z,12.33
2018-01-13T20:01:10.245Z,13.13
2018-01-13T20:03:38.633Z,14.20
2018-01-13T20:06:06.996Z,13.13
2018-01-13T20:08:35.377Z,14.00
2018-01-13T20:11:03.762Z,13.27
2018-01-13T20:13:32.108Z,13.57
2018-01-13T20:16:00.473Z,11.60
2018-01-13T20:18:29.008Z,14.67
2018-01-13T20:20:57.389Z,12.63
2018-01-13T20:23:25.762Z,14.40
2018-01-13T20:25:54.232Z,13.37
2018-01-13T20:28:22.631Z,13.77
2018-01-13T20:30:51.096Z,14.30
2018-01-13T20:33:19.591Z,12.77
2018-01-13T20:35:47.970Z,13.13
2018-01-13T20:38:16.345Z,13.37
2018-01-13T20:40:44.758Z,14.23
2018-01-13T20:43:13.549Z,14.30
2018-01-13T20:45:42.300Z,12.97
2018-01-13T20:48:10.799Z,13.77
2018-01-13T20:50:39.200Z,13.00
2018-01-13T20:53:07.567Z,13.00
2018-01-13T20:55:36.658Z,13.17
2018-01-13T20:58:05.520Z,13.40
2018-01-13T21:00:34.208Z,13.50
2018-01-13T21:03:03.019Z,12.40
2018-01-13T21:05:31.487Z,14.60
2018-01-13T21:07:59.869Z,14.07
2018-01-13T21:10:28.265Z,13.53
2018-01-13T21:12:57.142Z,15.50
2018-01-13T21:15:25.520Z,15.00
2018-01-13T21:17:53.923Z,13.63
2018-01-13T21:20:22.367Z,16.03
2018-01-13T21:22:50.736Z,15.57
2018-01-13T21:25:19.152Z,14.83
2018-01-13T21:27:47.508Z,15.57
2018-01-13T21:30:15.877Z,15.40
2018-01-13T21:32:44.343Z,13.60
2018-01-13T21:35:12.710Z,15.33
2018-01-13T21:37:41.111Z,15.17
2018-01-13T21:40:09.511Z,17.27
2018-01-13T21:42:37.871Z,14.57
2018-01-13T21:45:06.281Z,14.23
2018-01-13T21:47:35.071Z,16.90
2018-01-13T21:50:03.860Z,15.40
2018-01-13T21:52:32.727Z,14.73
2018-01-13T21:55:01.102Z,14.63
2018-01-13T21:57:29.469Z,14.60
2018-01-13T21:59:57.826Z,13.53
2018-01-13T22:02:26.200Z,15.10
2018-01-13T22:04:54.559Z,13.90
2018-01-13T22:07:22.922Z,14.20
2018-01-13T22:09:51.693Z,14.67
2018-01-13T22:12:20.060Z,16.10
2018-01-13T22:14:48.539Z,14.80
2018-01-13T22:17:17.023Z,14.77
2018-01-13T22:19:45.393Z,15.00
2018-01-13T22:22:13.767Z,14.27
2018-01-13T22:24:42.161Z,16.73
2018-01-13T22:27:10.520Z,16.57
2018-01-13T22:29:38.911Z,15.27
2018-01-13T22:32:07.288Z,15.07
2018-01-13T22:34:35.672Z,15.47
2018-01-13T22:37:04.030Z,14.20
2018-01-13T22:39:32.455Z,15.50
2018-01-13T22:42:00.811Z,14.93
2018-01-13T22:44:29.179Z,14.03
2018-01-13T22:46:57.595Z,15.73
2018-01-13T22:49:26.383Z,15.53
2018-01-13T22:51:55.144Z,14.50
2018-01-13T22:54:23.566Z,14.83
2018-01-13T22:56:52.031Z,14.80
2018-01-13T22:59:20.779Z,16.23
2018-01-13T23:01:49.169Z,15.87
2018-01-13T23:04:17.562Z,15.43
2018-01-13T23:06:46.039Z,15.77
2018-01-13T23:09:14.417Z,16.40
2018-01-13T23:11:42.793Z,15.17
2018-01-13T23:14:11.189Z,15.80
2018-01-13T23:16:39.644Z,15.77
2018-01-13T23:19:07.997Z,16.13
2018-01-13T23:21:36.371Z,16.10
2018-01-13T23:24:04.736Z,15.43
2018-01-13T23:26:33.110Z,16.00
2018-01-13T23:29:01.594Z,17.40
2018-01-13T23:31:29.975Z,16.47
2018-01-13T23:33:58.422Z,17.60
2018-01-13T23:36:26.848Z,15.50
2018-01-13T23:38:55.256Z,16.93
2018-01-13T23:41:23.607Z,17.07
2018-01-13T23:43:51.972Z,15.97
2018-01-13T23:46:20.367Z,15.77
2018-01-13T23:48:48.733Z,15.03
2018-01-13T23:51:17.152Z,16.67
2018-01-13T23:53:45.720Z,16.30
2018-01-13T23:56:14.084Z,16.27
2018-01-13T23:58:42.443Z,16.33
